createdAt,value
2023-05-23T00:00:55.582Z,1015.95
2023-05-23T00:02:55.678Z,1016.00
2023-05-23T00:04:55.569Z,1015.99
2023-05-23T00:06:55.644Z,1015.99
2023-05-23T00:08:55.625Z,1015.93
2023-05-23T00:10:55.525Z,1015.94
2023-05-23T00:12:55.523Z,1015.89
2023-05-23T00:14:55.537Z,1015.93
2023-05-23T00:16:55.616Z,1015.93
2023-05-23T00:18:55.597Z,1015.96
2023-05-23T00:20:55.584Z,1015.94
2023-05-23T00:22:55.511Z,1016.00
2023-05-23T00:24:55.716Z,1016.02
2023-05-23T00:26:55.608Z,1016.02
2023-05-23T00:28:59.033Z,1016.02
2023-05-23T00:30:55.545Z,1016.09
2023-05-23T00:32:55.719Z,1016.10
2023-05-23T00:34:55.604Z,1016.10
2023-05-23T00:36:55.535Z,1016.05
2023-05-23T00:38:55.564Z,1016.09
2023-05-23T00:40:56.911Z,1016.09
2023-05-23T00:42:55.550Z,1016.03
2023-05-23T00:44:55.761Z,1016.03
2023-05-23T00:46:55.683Z,1016.06
2023-05-23T00:48:55.542Z,1016.02
2023-05-23T00:50:55.705Z,1016.03
2023-05-23T00:52:55.597Z,1016.08
2023-05-23T00:54:55.765Z,1016.08
2023-05-23T00:56:55.631Z,1016.09
2023-05-23T00:58:55.600Z,1016.08
2023-05-23T01:00:56.420Z,1016.07
2023-05-23T01:02:55.724Z,1016.07
2023-05-23T01:04:55.782Z,1016.05
2023-05-23T01:06:58.804Z,1016.04
2023-05-23T01:08:55.570Z,1016.04
2023-05-23T01:10:55.595Z,1016.11
2023-05-23T01:12:55.637Z,1016.11
2023-05-23T01:14:55.566Z,1016.13
2023-05-23T01:16:55.662Z,1016.11
2023-05-23T01:18:55.665Z,1016.18
2023-05-23T01:20:55.858Z,1016.21
2023-05-23T01:22:55.548Z,1016.21
2023-05-23T01:24:55.603Z,1016.15
2023-05-23T01:26:55.602Z,1016.07
2023-05-23T01:28:55.614Z,1016.09
2023-05-23T01:30:58.613Z,1016.03
2023-05-23T01:32:55.710Z,1016.03
2023-05-23T01:34:55.698Z,1016.06
2023-05-23T01:36:55.587Z,1016.13
2023-05-23T01:38:55.579Z,1016.11
2023-05-23T01:40:55.715Z,1016.11
2023-05-23T01:42:55.585Z,1016.10
2023-05-23T01:44:55.754Z,1016.15
2023-05-23T01:46:55.572Z,1016.17
2023-05-23T01:48:55.643Z,1016.17
2023-05-23T01:50:55.579Z,1016.17
2023-05-23T01:52:55.956Z,1016.14
2023-05-23T01:54:55.572Z,1016.19
2023-05-23T01:56:55.618Z,1016.19
2023-05-23T01:58:57.194Z,1016.21
2023-05-23T02:00:55.573Z,1016.21
2023-05-23T02:02:55.686Z,1016.26
2023-05-23T02:04:55.654Z,1016.23
2023-05-23T02:06:55.634Z,1016.22
2023-05-23T02:08:55.591Z,1016.22
2023-05-23T02:10:55.713Z,1016.32
2023-05-23T02:12:55.720Z,1016.31
2023-05-23T02:14:56.071Z,1016.31
2023-05-23T02:16:55.757Z,1016.35
2023-05-23T02:18:55.622Z,1016.35
2023-05-23T02:20:55.668Z,1016.35
2023-05-23T02:22:55.724Z,1016.34
2023-05-23T02:24:58.637Z,1016.36
2023-05-23T02:26:55.655Z,1016.37
2023-05-23T02:28:57.869Z,1016.37
2023-05-23T02:30:55.642Z,1016.37
2023-05-23T02:32:59.110Z,1016.36
2023-05-23T02:34:57.214Z,1016.36
2023-05-23T02:36:55.664Z,1016.36
2023-05-23T02:38:55.842Z,1016.29
2023-05-23T02:40:55.632Z,1016.31
2023-05-23T02:42:55.760Z,1016.28
2023-05-23T02:44:55.765Z,1016.29
2023-05-23T02:46:55.692Z,1016.29
2023-05-23T02:48:55.742Z,1016.28
2023-05-23T02:50:55.642Z,1016.28
2023-05-23T02:52:55.749Z,1016.28
2023-05-23T02:54:55.687Z,1016.30
2023-05-23T02:56:55.651Z,1016.30
2023-05-23T02:58:55.784Z,1016.26
2023-05-23T03:00:55.700Z,1016.27
2023-05-23T03:02:56.024Z,1016.27
2023-05-23T03:04:55.813Z,1016.27
2023-05-23T03:06:55.890Z,1016.29
2023-05-23T03:08:55.702Z,1016.28
2023-05-23T03:10:55.816Z,1016.28
2023-05-23T03:12:55.862Z,1016.24
2023-05-23T03:14:55.885Z,1016.24
2023-05-23T03:16:56.023Z,1016.27
2023-05-23T03:18:55.915Z,1016.28
2023-05-23T03:21:56.036Z,1016.29
2023-05-23T03:23:55.959Z,1016.35
2023-05-23T03:25:55.852Z,1016.38
2023-05-23T03:27:55.978Z,1016.35
2023-05-23T03:29:58.908Z,1016.35
2023-05-23T03:31:55.845Z,1016.42
2023-05-23T03:33:55.853Z,1016.43
2023-05-23T03:35:00.801Z,1016.43
2023-05-23T03:37:55.893Z,1016.40
2023-05-23T03:39:55.862Z,1016.41
2023-05-23T03:41:55.939Z,1016.43
2023-05-23T03:43:56.042Z,1016.46
2023-05-23T03:45:55.873Z,1016.44
2023-05-23T03:47:55.924Z,1016.44
2023-05-23T03:49:55.873Z,1016.52
2023-05-23T03:51:56.062Z,1016.52
2023-05-23T03:53:55.878Z,1016.58
2023-05-23T03:55:55.863Z,1016.62
2023-05-23T03:57:55.851Z,1016.62
2023-05-23T03:59:55.911Z,1016.61
2023-05-23T04:01:56.049Z,1016.64
2023-05-23T04:03:56.066Z,1016.61
2023-05-23T04:05:55.980Z,1016.61
2023-05-23T04:07:58.841Z,1016.60
2023-05-23T04:09:56.075Z,1016.62
2023-05-23T04:11:55.918Z,1016.61
2023-05-23T04:13:55.866Z,1016.54
2023-05-23T04:15:55.990Z,1016.54
2023-05-23T04:17:55.942Z,1016.51
2023-05-23T04:19:55.944Z,1016.53
2023-05-23T04:21:55.912Z,1016.56
2023-05-23T04:23:56.372Z,1016.57
2023-05-23T04:25:55.684Z,1016.57
2023-05-23T04:27:55.656Z,1016.53
2023-05-23T04:29:55.873Z,1016.52
2023-05-23T04:31:55.877Z,1016.52
2023-05-23T04:33:55.837Z,1016.56
2023-05-23T04:35:55.801Z,1016.56
2023-05-23T04:37:55.686Z,1016.57
2023-05-23T04:39:55.698Z,1016.64
2023-05-23T04:41:55.830Z,1016.63
2023-05-23T04:43:58.700Z,1016.63
2023-05-23T04:45:55.840Z,1016.70
2023-05-23T04:47:55.849Z,1016.74
2023-05-23T04:49:55.753Z,1016.66
2023-05-23T04:51:55.762Z,1016.73
2023-05-23T04:53:58.530Z,1016.73
2023-05-23T04:55:56.033Z,1016.78
2023-05-23T04:57:55.865Z,1016.81
2023-05-23T04:59:55.965Z,1016.86
2023-05-23T05:01:55.916Z,1016.87
2023-05-23T05:03:55.762Z,1016.87
2023-05-23T05:05:58.643Z,1016.91
2023-05-23T05:07:55.718Z,1016.89
2023-05-23T05:10:01.003Z,1016.94
2023-05-23T05:11:55.702Z,1016.94
2023-05-23T05:13:55.856Z,1016.94
2023-05-23T05:15:55.779Z,1016.97
2023-05-23T05:17:55.905Z,1016.99
2023-05-23T05:21:55.926Z,1017.03
2023-05-23T05:23:55.856Z,1017.02
2023-05-23T05:25:58.165Z,1017.01
2023-05-23T05:28:18.284Z,1017.04
2023-05-23T05:30:18.394Z,1017.06
2023-05-23T05:32:18.478Z,1017.06
2023-05-23T05:34:23.145Z,1017.03
2023-05-23T05:36:24.176Z,1017.04
2023-05-23T05:38:18.262Z,1017.08
2023-05-23T05:40:21.726Z,1017.08
2023-05-23T05:42:19.296Z,1017.13
2023-05-23T05:44:27.243Z,1017.15
2023-05-23T05:46:18.382Z,1017.19
2023-05-23T05:48:18.257Z,1017.22
2023-05-23T05:50:18.210Z,1017.22
2023-05-23T05:52:21.158Z,1017.22
2023-05-23T05:54:19.392Z,1017.22
2023-05-23T05:56:18.392Z,1017.21
2023-05-23T05:58:21.076Z,1017.20
2023-05-23T06:00:23.992Z,1017.20
2023-05-23T06:02:18.314Z,1017.18
2023-05-23T06:04:27.256Z,1017.20
2023-05-23T06:06:24.427Z,1017.20
2023-05-23T06:08:18.323Z,1017.20
2023-05-23T06:10:18.297Z,1017.20
2023-05-23T06:12:18.330Z,1017.22
2023-05-23T06:14:18.308Z,1017.22
2023-05-23T06:16:21.457Z,1017.23
2023-05-23T06:18:18.378Z,1017.23
2023-05-23T06:20:24.442Z,1017.24
2023-05-23T06:22:18.312Z,1017.24
2023-05-23T06:24:18.330Z,1017.25
2023-05-23T06:26:18.243Z,1017.24
2023-05-23T06:28:20.981Z,1017.24
2023-05-23T06:30:24.231Z,1017.26
2023-05-23T06:32:18.310Z,1017.21
2023-05-23T06:34:18.372Z,1017.21
2023-05-23T06:36:18.292Z,1017.21
2023-05-23T06:38:18.266Z,1017.21
2023-05-23T06:40:18.235Z,1017.24
2023-05-23T06:42:18.272Z,1017.27
2023-05-23T06:44:18.327Z,1017.30
2023-05-23T06:46:21.116Z,1017.30
2023-05-23T06:48:22.313Z,1017.25
2023-05-23T06:50:21.034Z,1017.27
2023-05-23T06:52:19.447Z,1017.29
2023-05-23T06:54:18.284Z,1017.37
2023-05-23T06:56:21.310Z,1017.37
2023-05-23T06:58:18.258Z,1017.37
2023-05-23T07:00:18.412Z,1017.44
2023-05-23T07:02:27.403Z,1017.41
2023-05-23T07:04:18.282Z,1017.48
2023-05-23T07:06:18.381Z,1017.48
2023-05-23T07:08:18.363Z,1017.52
2023-05-23T07:10:24.415Z,1017.50
2023-05-23T07:12:20.934Z,1017.47
2023-05-23T07:14:21.529Z,1017.47
2023-05-23T07:16:18.310Z,1017.47
2023-05-23T07:18:18.286Z,1017.52
2023-05-23T07:20:21.138Z,1017.58
2023-05-23T07:22:18.269Z,1017.59
2023-05-23T07:24:18.315Z,1017.59
2023-05-23T07:26:27.291Z,1017.59
2023-05-23T07:28:18.304Z,1017.56
2023-05-23T07:30:18.338Z,1017.56
2023-05-23T07:32:18.483Z,1017.60
2023-05-23T07:34:21.186Z,1017.60
2023-05-23T07:36:18.407Z,1017.62
2023-05-23T07:38:18.313Z,1017.63
2023-05-23T07:40:18.280Z,1017.65
2023-05-23T07:42:18.300Z,1017.65
2023-05-23T07:44:18.375Z,1017.63
2023-05-23T07:46:18.311Z,1017.70
2023-05-23T07:48:18.552Z,1017.67
2023-05-23T07:50:18.528Z,1017.72
2023-05-23T07:52:18.387Z,1017.72
2023-05-23T07:54:18.397Z,1017.69
2023-05-23T07:56:27.287Z,1017.69
2023-05-23T07:58:21.700Z,1017.69
2023-05-23T08:00:24.055Z,1017.71
2023-05-23T08:02:18.410Z,1017.71
2023-05-23T08:04:18.373Z,1017.70
2023-05-23T08:06:18.332Z,1017.73
2023-05-23T08:08:18.445Z,1017.69
2023-05-23T08:10:18.322Z,1017.69
2023-05-23T08:12:18.593Z,1017.74
2023-05-23T08:14:21.432Z,1017.71
2023-05-23T08:16:18.386Z,1017.74
2023-05-23T08:18:19.975Z,1017.78
2023-05-23T08:20:18.373Z,1017.78
2023-05-23T08:22:21.119Z,1017.75
2023-05-23T08:24:18.410Z,1017.69
2023-05-23T08:26:21.022Z,1017.71
2023-05-23T08:28:25.852Z,1017.71
2023-05-23T08:30:24.413Z,1017.71
2023-05-23T08:32:21.755Z,1017.72
2023-05-23T08:35:18.383Z,1017.71
2023-05-23T08:36:21.163Z,1017.71
2023-05-23T08:38:24.350Z,1017.75
2023-05-23T08:41:18.381Z,1017.87
2023-05-23T08:43:18.351Z,1017.87
2023-05-23T08:45:18.628Z,1017.85
2023-05-23T08:47:18.353Z,1017.84
2023-05-23T08:49:18.332Z,1017.82
2023-05-23T08:51:21.550Z,1017.87
2023-05-23T08:53:20.986Z,1017.87
2023-05-23T08:55:18.359Z,1017.86
2023-05-23T08:57:18.390Z,1017.88
2023-05-23T08:59:18.374Z,1017.90
2023-05-23T09:01:18.477Z,1017.85
2023-05-23T09:03:18.386Z,1017.85
2023-05-23T09:05:18.366Z,1017.91
2023-05-23T09:07:30.417Z,1017.96
2023-05-23T09:09:24.407Z,1017.98
2023-05-23T09:11:18.369Z,1017.98
2023-05-23T09:13:27.205Z,1018.07
2023-05-23T09:15:18.329Z,1018.07
2023-05-23T09:17:18.405Z,1018.07
2023-05-23T09:19:18.400Z,1018.10
2023-05-23T09:21:25.412Z,1018.10
2023-05-23T09:23:18.431Z,1018.17
2023-05-23T09:25:24.216Z,1018.13
2023-05-23T09:27:19.949Z,1018.19
2023-05-23T09:29:18.407Z,1018.25
2023-05-23T09:31:21.368Z,1018.25
2023-05-23T09:33:18.503Z,1018.24
2023-05-23T09:35:18.475Z,1018.28
2023-05-23T09:37:18.462Z,1018.25
2023-05-23T09:39:18.411Z,1018.25
2023-05-23T09:41:18.471Z,1018.23
2023-05-23T09:43:18.390Z,1018.24
2023-05-23T09:45:18.433Z,1018.28
2023-05-23T09:47:21.484Z,1018.23
2023-05-23T09:49:18.556Z,1018.23
2023-05-23T09:51:24.160Z,1018.28
2023-05-23T09:53:21.666Z,1018.24
2023-05-23T09:55:27.463Z,1018.23
2023-05-23T09:57:21.317Z,1018.23
2023-05-23T09:59:18.453Z,1018.23
2023-05-23T10:01:20.795Z,1018.26
2023-05-23T10:03:18.447Z,1018.29
2023-05-23T10:05:21.407Z,1018.25
2023-05-23T10:07:24.385Z,1018.30
2023-05-23T10:09:18.726Z,1018.30
2023-05-23T10:11:18.528Z,1018.36
2023-05-23T10:13:21.201Z,1018.36
2023-05-23T10:15:18.727Z,1018.37
2023-05-23T10:17:18.587Z,1018.37
2023-05-23T10:19:25.041Z,1018.31
2023-05-23T10:21:18.534Z,1018.34
2023-05-23T10:23:21.704Z,1018.36
2023-05-23T10:25:18.440Z,1018.33
2023-05-23T10:27:24.445Z,1018.33
2023-05-23T10:29:18.451Z,1018.35
2023-05-23T10:31:18.498Z,1018.32
2023-05-23T10:33:21.452Z,1018.36
2023-05-23T10:35:18.397Z,1018.33
2023-05-23T10:37:21.365Z,1018.33
2023-05-23T10:39:18.523Z,1018.33
2023-05-23T10:41:18.540Z,1018.38
2023-05-23T10:43:18.524Z,1018.40
2023-05-23T10:45:21.576Z,1018.40
2023-05-23T10:47:18.722Z,1018.34
2023-05-23T10:49:18.690Z,1018.38
2023-05-23T10:51:24.246Z,1018.36
2023-05-23T10:53:18.469Z,1018.41
2023-05-23T10:55:21.455Z,1018.41
2023-05-23T10:57:18.470Z,1018.38
2023-05-23T10:59:18.478Z,1018.38
2023-05-23T11:01:18.640Z,1018.40
2023-05-23T11:03:18.537Z,1018.43
2023-05-23T11:05:18.484Z,1018.43
2023-05-23T11:07:18.531Z,1018.37
2023-05-23T11:09:22.437Z,1018.38
2023-05-23T11:11:27.555Z,1018.41
2023-05-23T11:13:27.336Z,1018.41
2023-05-23T11:15:18.564Z,1018.42
2023-05-23T11:17:18.636Z,1018.39
2023-05-23T11:19:18.748Z,1018.39
2023-05-23T11:21:18.489Z,1018.46
2023-05-23T11:23:18.535Z,1018.46
2023-05-23T11:25:18.472Z,1018.48
2023-05-23T11:27:21.632Z,1018.44
2023-05-23T11:29:18.617Z,1018.51
2023-05-23T11:31:21.660Z,1018.42
2023-05-23T11:33:18.931Z,1018.42
2023-05-23T11:37:34.862Z,1018.45
2023-05-23T11:39:32.303Z,1018.43
2023-05-23T11:41:34.950Z,1018.43
2023-05-23T11:43:32.237Z,1018.41
2023-05-23T11:45:32.392Z,1018.50
2023-05-23T11:47:32.420Z,1018.53
2023-05-23T11:49:32.323Z,1018.51
2023-05-23T11:51:32.289Z,1018.51
2023-05-23T11:53:32.465Z,1018.48
2023-05-23T11:55:32.529Z,1018.55
2023-05-23T11:57:32.279Z,1018.51
2023-05-23T11:59:34.939Z,1018.51
2023-05-23T12:01:47.191Z,1018.52
2023-05-23T12:03:32.436Z,1018.52
2023-05-23T12:05:37.965Z,1018.51
2023-05-23T12:07:32.359Z,1018.46
2023-05-23T12:09:32.303Z,1018.43
2023-05-23T12:11:32.272Z,1018.43
2023-05-23T12:13:32.527Z,1018.42
2023-05-23T12:15:32.311Z,1018.44
2023-05-23T12:17:32.794Z,1018.48
2023-05-23T12:19:32.370Z,1018.48
2023-05-23T12:21:32.354Z,1018.51
2023-05-23T12:23:34.489Z,1018.45
2023-05-23T12:25:35.126Z,1018.44
2023-05-23T12:27:32.335Z,1018.43
2023-05-23T12:29:34.506Z,1018.43
2023-05-23T12:31:32.335Z,1018.42
2023-05-23T12:33:32.560Z,1018.45
2023-05-23T12:35:32.401Z,1018.34
2023-05-23T12:37:32.331Z,1018.38
2023-05-23T12:39:33.861Z,1018.38
2023-05-23T12:41:32.397Z,1018.38
2023-05-23T12:43:32.278Z,1018.31
2023-05-23T12:45:33.135Z,1018.32
2023-05-23T12:47:32.464Z,1018.32
2023-05-23T12:49:32.350Z,1018.22
2023-05-23T12:51:32.416Z,1018.27
2023-05-23T12:53:32.383Z,1018.30
2023-05-23T12:55:32.363Z,1018.21
2023-05-23T12:57:32.339Z,1018.21
2023-05-23T12:59:32.302Z,1018.19
2023-05-23T13:01:32.482Z,1018.19
2023-05-23T13:03:32.772Z,1018.22
2023-05-23T13:05:32.330Z,1018.19
2023-05-23T13:07:32.384Z,1018.19
2023-05-23T13:09:32.435Z,1018.34
2023-05-23T13:11:32.409Z,1018.33
2023-05-23T13:13:35.145Z,1018.34
2023-05-23T13:15:35.365Z,1018.34
2023-05-23T13:17:34.768Z,1018.36
2023-05-23T13:19:32.477Z,1018.38
2023-05-23T13:21:35.032Z,1018.38
2023-05-23T13:24:32.399Z,1018.32
2023-05-23T13:25:35.525Z,1018.32
2023-05-23T13:27:35.240Z,1018.43
2023-05-23T13:30:32.314Z,1018.35
2023-05-23T13:32:38.153Z,1018.45
2023-05-23T13:34:35.049Z,1018.47
2023-05-23T13:36:35.200Z,1018.37
2023-05-23T13:38:33.164Z,1018.46
2023-05-23T13:40:32.397Z,1018.46
2023-05-23T13:42:32.397Z,1018.48
2023-05-23T13:44:35.204Z,1018.47
2023-05-23T13:46:41.393Z,1018.47
2023-05-23T13:48:35.489Z,1018.47
2023-05-23T13:50:35.615Z,1018.46
2023-05-23T13:52:32.540Z,1018.50
2023-05-23T13:54:32.320Z,1018.49
2023-05-23T13:56:32.524Z,1018.48
2023-05-23T13:58:32.968Z,1018.48
2023-05-23T14:00:35.362Z,1018.52
2023-05-23T14:02:32.416Z,1018.52
2023-05-23T14:04:32.605Z,1018.55
2023-05-23T14:06:32.333Z,1018.53
2023-05-23T14:08:32.341Z,1018.53
2023-05-23T14:10:38.113Z,1018.48
2023-05-23T14:12:32.329Z,1018.51
2023-05-23T14:14:35.398Z,1018.57
2023-05-23T14:16:32.558Z,1018.57
2023-05-23T14:18:32.448Z,1018.62
2023-05-23T14:20:32.368Z,1018.60
2023-05-23T14:22:32.417Z,1018.51
2023-05-23T14:24:32.335Z,1018.63
2023-05-23T14:26:32.423Z,1018.63
2023-05-23T14:28:35.347Z,1018.58
2023-05-23T14:30:32.393Z,1018.63
2023-05-23T14:32:46.784Z,1018.67
2023-05-23T14:34:32.334Z,1018.63
2023-05-23T14:36:32.534Z,1018.63
2023-05-23T14:38:32.404Z,1018.58
2023-05-23T14:40:32.344Z,1018.58
2023-05-23T14:42:32.493Z,1018.58
2023-05-23T14:44:32.366Z,1018.58
2023-05-23T14:46:32.623Z,1018.59
2023-05-23T14:48:32.660Z,1018.57
2023-05-23T14:50:32.438Z,1018.51
2023-05-23T14:52:32.624Z,1018.50
2023-05-23T14:54:32.553Z,1018.50
2023-05-23T14:56:32.418Z,1018.57
2023-05-23T14:58:32.370Z,1018.54
2023-05-23T15:00:32.425Z,1018.58
2023-05-23T15:02:35.306Z,1018.55
2023-05-23T15:04:32.550Z,1018.55
2023-05-23T15:06:38.397Z,1018.56
2023-05-23T15:08:38.356Z,1018.58
2023-05-23T15:10:38.045Z,1018.52
2023-05-23T15:12:32.865Z,1018.51
2023-05-23T15:14:32.471Z,1018.51
2023-05-23T15:16:33.134Z,1018.50
2023-05-23T15:18:41.875Z,1018.53
2023-05-23T15:20:32.513Z,1018.55
2023-05-23T15:24:33.764Z,1018.55
2023-05-23T15:26:32.660Z,1018.48
2023-05-23T15:28:35.091Z,1018.48
2023-05-23T15:30:38.805Z,1018.43
2023-05-23T15:32:32.497Z,1018.43
2023-05-23T15:34:32.465Z,1018.44
2023-05-23T15:36:33.794Z,1018.45
2023-05-23T15:38:32.744Z,1018.41
2023-05-23T15:40:32.411Z,1018.38
2023-05-23T15:42:34.608Z,1018.38
2023-05-23T15:44:32.596Z,1018.34
2023-05-23T15:46:35.273Z,1018.35
2023-05-23T15:48:32.611Z,1018.38
2023-05-23T15:50:32.403Z,1018.38
2023-05-23T15:52:33.755Z,1018.36
2023-05-23T15:54:32.506Z,1018.40
2023-05-23T15:56:32.581Z,1018.38
2023-05-23T15:58:32.825Z,1018.42
2023-05-23T16:00:32.827Z,1018.42
2023-05-23T16:02:32.573Z,1018.37
2023-05-23T16:04:35.270Z,1018.37
2023-05-23T16:06:35.370Z,1018.37
2023-05-23T16:08:35.021Z,1018.36
2023-05-23T16:10:32.488Z,1018.36
2023-05-23T16:12:32.434Z,1018.43
2023-05-23T16:14:36.948Z,1018.42
2023-05-23T16:16:32.558Z,1018.35
2023-05-23T16:18:35.389Z,1018.35
2023-05-23T16:20:35.360Z,1018.39
2023-05-23T16:22:32.480Z,1018.40
2023-05-23T16:24:32.503Z,1018.40
2023-05-23T16:26:32.509Z,1018.37
2023-05-23T16:28:32.587Z,1018.37
2023-05-23T16:30:32.474Z,1018.38
2023-05-23T16:32:35.727Z,1018.42
2023-05-23T16:34:32.615Z,1018.41
2023-05-23T16:36:32.476Z,1018.43
2023-05-23T16:38:32.519Z,1018.43
2023-05-23T16:40:35.413Z,1018.38
2023-05-23T16:42:32.548Z,1018.38
2023-05-23T16:44:32.571Z,1018.38
2023-05-23T16:46:32.707Z,1018.38
2023-05-23T16:48:35.562Z,1018.36
2023-05-23T16:50:32.530Z,1018.37
2023-05-23T16:52:32.532Z,1018.38
2023-05-23T16:54:32.668Z,1018.36
2023-05-23T16:56:44.323Z,1018.36
2023-05-23T16:58:32.653Z,1018.35
2023-05-23T17:00:32.497Z,1018.44
2023-05-23T17:02:32.685Z,1018.40
2023-05-23T17:04:32.918Z,1018.41
2023-05-23T17:06:35.434Z,1018.41
2023-05-23T17:08:38.336Z,1018.44
2023-05-23T17:10:32.778Z,1018.41
2023-05-23T17:12:44.461Z,1018.42
2023-05-23T17:14:44.401Z,1018.44
2023-05-23T17:16:44.625Z,1018.44
2023-05-23T17:18:44.492Z,1018.45
2023-05-23T17:20:44.383Z,1018.47
2023-05-23T17:22:44.414Z,1018.49
2023-05-23T17:24:44.400Z,1018.49
2023-05-23T17:26:44.612Z,1018.49
2023-05-23T17:28:44.497Z,1018.53
2023-05-23T17:30:44.459Z,1018.52
2023-05-23T17:32:44.428Z,1018.55
2023-05-23T17:34:44.555Z,1018.55
2023-05-23T17:36:44.433Z,1018.54
2023-05-23T17:38:44.498Z,1018.63
2023-05-23T17:40:44.687Z,1018.64
2023-05-23T17:42:44.481Z,1018.65
2023-05-23T17:44:44.497Z,1018.65
2023-05-23T17:46:44.430Z,1018.66
2023-05-23T17:48:47.088Z,1018.65
2023-05-23T17:50:45.994Z,1018.64
2023-05-23T17:52:44.478Z,1018.64
2023-05-23T17:54:44.814Z,1018.70
2023-05-23T17:56:44.498Z,1018.78
2023-05-23T17:59:44.476Z,1018.84
2023-05-23T18:00:45.695Z,1018.84
2023-05-23T18:03:44.825Z,1018.83
2023-05-23T18:04:47.559Z,1018.83
2023-05-23T18:07:44.523Z,1018.83
2023-05-23T18:09:47.658Z,1018.86
2023-05-23T18:11:44.488Z,1018.90
2023-05-23T18:13:44.519Z,1018.92
2023-05-23T18:15:44.464Z,1018.93
2023-05-23T18:17:44.853Z,1018.93
2023-05-23T18:19:44.582Z,1018.87
2023-05-23T18:21:44.506Z,1018.86
2023-05-23T18:23:44.553Z,1018.89
2023-05-23T18:25:44.555Z,1018.89
2023-05-23T18:27:49.521Z,1018.89
2023-05-23T18:29:44.442Z,1018.93
2023-05-23T18:31:44.523Z,1019.02
2023-05-23T18:33:44.578Z,1019.08
2023-05-23T18:35:44.808Z,1019.08
2023-05-23T18:37:47.235Z,1019.07
2023-05-23T18:39:44.535Z,1019.10
2023-05-23T18:41:44.602Z,1019.10
2023-05-23T18:43:44.634Z,1019.10
2023-05-23T18:45:44.666Z,1019.10
2023-05-23T18:47:44.597Z,1019.10
2023-05-23T18:49:44.624Z,1019.04
2023-05-23T18:51:44.545Z,1019.06
2023-05-23T18:53:44.787Z,1019.06
2023-05-23T18:55:44.610Z,1019.15
2023-05-23T18:57:44.694Z,1019.23
2023-05-23T18:59:44.573Z,1019.28
2023-05-23T19:01:44.663Z,1019.28
2023-05-23T19:03:44.726Z,1019.28
2023-05-23T19:05:44.614Z,1019.28
2023-05-23T19:07:44.648Z,1019.36
2023-05-23T19:09:44.496Z,1019.47
2023-05-23T19:11:44.677Z,1019.51
2023-05-23T19:13:44.603Z,1019.51
2023-05-23T19:15:44.623Z,1019.60
2023-05-23T19:17:44.638Z,1019.61
2023-05-23T19:19:47.977Z,1019.68
2023-05-23T19:21:44.485Z,1019.68
2023-05-23T19:23:44.637Z,1019.75
2023-05-23T19:25:44.677Z,1019.80
2023-05-23T19:27:45.449Z,1019.80
2023-05-23T19:29:44.698Z,1019.85
2023-05-23T19:31:44.649Z,1019.85
2023-05-23T19:33:44.652Z,1019.89
2023-05-23T19:35:44.652Z,1019.94
2023-05-23T19:37:44.823Z,1019.96
2023-05-23T19:39:47.181Z,1019.98
2023-05-23T19:41:44.548Z,1019.98
2023-05-23T19:43:44.636Z,1020.03
2023-05-23T19:45:47.185Z,1020.03
2023-05-23T19:47:44.577Z,1020.07
2023-05-23T19:49:44.679Z,1020.07
2023-05-23T19:51:44.539Z,1020.07
2023-05-23T19:53:44.511Z,1020.12
2023-05-23T19:55:44.518Z,1020.10
2023-05-23T19:57:44.579Z,1020.11
2023-05-23T19:59:44.837Z,1020.11
2023-05-23T20:01:44.700Z,1020.15
2023-05-23T20:03:44.608Z,1020.16
2023-05-23T20:05:47.564Z,1020.19
2023-05-23T20:07:47.452Z,1020.19
2023-05-23T20:09:44.619Z,1020.19
2023-05-23T20:11:44.602Z,1020.30
2023-05-23T20:13:44.652Z,1020.30
2023-05-23T20:15:47.460Z,1020.30
2023-05-23T20:17:56.411Z,1020.36
2023-05-23T20:19:44.575Z,1020.36
2023-05-23T20:21:47.677Z,1020.35
2023-05-23T20:23:47.294Z,1020.42
2023-05-23T20:25:44.545Z,1020.47
2023-05-23T20:27:44.528Z,1020.47
2023-05-23T20:29:44.779Z,1020.48
2023-05-23T20:31:44.604Z,1020.49
2023-05-23T20:33:44.532Z,1020.48
2023-05-23T20:35:47.527Z,1020.50
2023-05-23T20:37:44.637Z,1020.50
2023-05-23T20:39:44.539Z,1020.47
2023-05-23T20:41:44.603Z,1020.44
2023-05-23T20:43:44.686Z,1020.52
2023-05-23T20:45:44.567Z,1020.53
2023-05-23T20:47:44.577Z,1020.53
2023-05-23T20:49:44.544Z,1020.53
2023-05-23T20:51:44.616Z,1020.63
2023-05-23T20:53:44.630Z,1020.58
2023-05-23T20:55:50.195Z,1020.59
2023-05-23T20:57:47.045Z,1020.59
2023-05-23T20:59:50.477Z,1020.58
2023-05-23T21:01:44.681Z,1020.55
2023-05-23T21:03:44.989Z,1020.60
2023-05-23T21:05:45.002Z,1020.60
2023-05-23T21:07:44.603Z,1020.63
2023-05-23T21:09:44.573Z,1020.65
2023-05-23T21:11:44.638Z,1020.70
2023-05-23T21:13:44.523Z,1020.68
2023-05-23T21:15:45.009Z,1020.68
2023-05-23T21:17:44.674Z,1020.74
2023-05-23T21:19:44.605Z,1020.73
2023-05-23T21:21:44.560Z,1020.77
2023-05-23T21:23:44.582Z,1020.77
2023-05-23T21:25:44.659Z,1020.78
2023-05-23T21:27:44.583Z,1020.78
2023-05-23T21:29:49.462Z,1020.78
2023-05-23T21:31:44.672Z,1020.77
2023-05-23T21:33:44.526Z,1020.77
2023-05-23T21:35:47.534Z,1020.85
2023-05-23T21:37:46.644Z,1020.81
2023-05-23T21:39:51.344Z,1020.93
2023-05-23T21:41:44.590Z,1020.98
2023-05-23T21:43:44.676Z,1020.98
2023-05-23T21:45:44.781Z,1021.01
2023-05-23T21:48:44.585Z,1021.04
2023-05-23T21:50:46.396Z,1021.08
2023-05-23T21:52:44.568Z,1021.11
2023-05-23T21:54:44.841Z,1021.08
2023-05-23T21:56:44.644Z,1021.08
2023-05-23T21:58:44.690Z,1021.11
2023-05-23T22:00:48.630Z,1021.09
2023-05-23T22:02:44.657Z,1021.08
2023-05-23T22:04:44.654Z,1021.05
2023-05-23T22:06:44.613Z,1021.05
2023-05-23T22:08:44.668Z,1021.07
2023-05-23T22:10:44.696Z,1021.07
2023-05-23T22:12:44.629Z,1021.05
2023-05-23T22:14:44.757Z,1021.05
2023-05-23T22:16:44.771Z,1021.05
2023-05-23T22:18:51.497Z,1021.08
2023-05-23T22:20:44.592Z,1021.13
2023-05-23T22:22:44.620Z,1021.15
2023-05-23T22:24:44.597Z,1021.15
2023-05-23T22:26:44.712Z,1021.15
2023-05-23T22:28:44.626Z,1021.09
2023-05-23T22:30:44.698Z,1021.08
2023-05-23T22:32:44.737Z,1021.02
2023-05-23T22:34:44.708Z,1021.02
2023-05-23T22:36:44.636Z,1020.97
2023-05-23T22:38:44.625Z,1021.05
2023-05-23T22:40:44.699Z,1021.04
2023-05-23T22:42:44.747Z,1021.06
2023-05-23T22:44:44.644Z,1021.06
2023-05-23T22:46:44.661Z,1021.06
2023-05-23T22:48:44.634Z,1021.03
2023-05-23T22:50:44.740Z,1021.03
2023-05-23T22:52:44.696Z,1021.03
2023-05-23T22:54:44.633Z,1021.03
2023-05-23T22:56:44.922Z,1021.01
2023-05-23T22:58:44.699Z,1021.01
2023-05-23T23:00:57.651Z,1021.02
2023-05-23T23:02:48.671Z,1021.07
2023-05-23T23:04:44.735Z,1021.07
2023-05-23T23:06:44.613Z,1021.08
2023-05-23T23:08:44.758Z,1021.06
2023-05-23T23:10:45.324Z,1021.05
2023-05-23T23:12:44.719Z,1021.05
2023-05-23T23:16:44.804Z,1021.02
2023-05-23T23:18:44.799Z,1020.96
2023-05-23T23:20:48.275Z,1020.93
2023-05-23T23:22:45.761Z,1020.93
2023-05-23T23:26:22.287Z,1020.95
2023-05-23T23:28:22.062Z,1020.98
2023-05-23T23:30:22.357Z,1020.98
2023-05-23T23:32:22.041Z,1020.98
2023-05-23T23:34:22.282Z,1020.94
2023-05-23T23:36:22.122Z,1020.96
2023-05-23T23:38:22.225Z,1020.94
2023-05-23T23:40:22.259Z,1020.94
2023-05-23T23:42:22.075Z,1020.96
2023-05-23T23:44:22.062Z,1020.95
2023-05-23T23:46:22.426Z,1020.93
2023-05-23T23:48:22.087Z,1020.92
2023-05-23T23:50:22.117Z,1020.92
2023-05-23T23:52:22.070Z,1020.98
2023-05-23T23:54:22.600Z,1020.96
2023-05-23T23:56:22.239Z,1020.97
2023-05-23T23:58:22.124Z,1020.97
